sensor_id;sensor_type;location;lat;lon;timestamp;noise_LAeq;noise_LA_min;noise_LA_max;noise_LA01;noise_LA95
58303;Laerm;44109;52.398;7.024;2023-02-23T00:01:39;45.71;30.31;57.15;;
58303;Laerm;44109;52.398;7.024;2023-02-23T00:04:07;45.95;30.65;56.98;;
58303;Laerm;44109;52.398;7.024;2023-02-23T00:06:37;45.91;30.24;57.16;;
58303;Laerm;44109;52.398;7.024;2023-02-23T00:09:05;46.09;30.27;57.16;;
58303;Laerm;44109;52.398;7.024;2023-02-23T00:11:39;45.78;30.01;56.94;;
58303;Laerm;44109;52.398;7.024;2023-02-23T00:14:07;45.92;30.24;57.12;;
58303;Laerm;44109;52.398;7.024;2023-02-23T00:16:34;45.97;30.11;56.94;;
58303;Laerm;44109;52.398;7.024;2023-02-23T00:19:02;45.99;30.32;57.05;;
58303;Laerm;44109;52.398;7.024;2023-02-23T00:21:33;47.18;30.53;58.48;;
58303;Laerm;44109;52.398;7.024;2023-02-23T00:24:05;45.95;30.69;57.11;;
58303;Laerm;44109;52.398;7.024;2023-02-23T00:26:36;45.47;30.02;56.95;;
58303;Laerm;44109;52.398;7.024;2023-02-23T00:29:10;45.64;30.13;56.95;;
58303;Laerm;44109;52.398;7.024;2023-02-23T00:31:38;45.86;30.00;57.03;;
58303;Laerm;44109;52.398;7.024;2023-02-23T00:34:06;45.93;30.41;56.94;;
58303;Laerm;44109;52.398;7.024;2023-02-23T00:36:35;45.80;30.03;56.94;;
58303;Laerm;44109;52.398;7.024;2023-02-23T00:39:08;45.70;30.05;57.03;;
58303;Laerm;44109;52.398;7.024;2023-02-23T00:41:44;45.60;30.30;56.90;;
58303;Laerm;44109;52.398;7.024;2023-02-23T00:44:13;45.77;30.14;56.75;;
58303;Laerm;44109;52.398;7.024;2023-02-23T00:46:42;45.74;30.21;56.87;;
58303;Laerm;44109;52.398;7.024;2023-02-23T00:49:12;45.74;30.12;56.92;;
58303;Laerm;44109;52.398;7.024;2023-02-23T00:51:39;45.81;30.26;56.89;;
58303;Laerm;44109;52.398;7.024;2023-02-23T00:54:11;45.72;30.18;57.00;;
58303;Laerm;44109;52.398;7.024;2023-02-23T00:56:39;45.88;30.30;56.88;;
58303;Laerm;44109;52.398;7.024;2023-02-23T00:59:07;45.90;30.30;56.80;;
58303;Laerm;44109;52.398;7.024;2023-02-23T01:01:34;45.85;30.31;56.77;;
58303;Laerm;44109;52.398;7.024;2023-02-23T01:04:09;45.61;30.23;56.35;;
58303;Laerm;44109;52.398;7.024;2023-02-23T01:06:38;45.69;30.20;56.64;;
58303;Laerm;44109;52.398;7.024;2023-02-23T01:09:11;45.66;30.29;56.91;;
58303;Laerm;44109;52.398;7.024;2023-02-23T01:11:41;45.67;30.19;56.55;;
58303;Laerm;44109;52.398;7.024;2023-02-23T01:14:11;45.69;30.01;57.11;;
58303;Laerm;44109;52.398;7.024;2023-02-23T01:16:39;45.79;30.19;56.92;;
58303;Laerm;44109;52.398;7.024;2023-02-23T01:19:08;45.75;30.10;56.68;;
58303;Laerm;44109;52.398;7.024;2023-02-23T01:21:39;45.67;30.01;56.90;;
58303;Laerm;44109;52.398;7.024;2023-02-23T01:24:10;45.71;30.14;56.90;;
58303;Laerm;44109;52.398;7.024;2023-02-23T01:26:41;45.72;30.23;56.91;;
58303;Laerm;44109;52.398;7.024;2023-02-23T01:29:12;45.71;30.09;56.95;;
58303;Laerm;44109;52.398;7.024;2023-02-23T01:31:44;45.76;30.17;56.61;;
58303;Laerm;44109;52.398;7.024;2023-02-23T01:34:14;45.73;30.08;56.39;;
58303;Laerm;44109;52.398;7.024;2023-02-23T01:36:43;45.68;30.28;56.74;;
58303;Laerm;44109;52.398;7.024;2023-02-23T01:39:14;45.62;30.19;56.93;;
58303;Laerm;44109;52.398;7.024;2023-02-23T01:41:43;45.76;30.27;56.72;;
58303;Laerm;44109;52.398;7.024;2023-02-23T01:47:40;44.90;30.23;57.03;;
58303;Laerm;44109;52.398;7.024;2023-02-23T01:50:09;45.63;30.28;56.63;;
58303;Laerm;44109;52.398;7.024;2023-02-23T01:52:37;45.67;30.26;56.96;;
58303;Laerm;44109;52.398;7.024;2023-02-23T01:55:07;45.68;30.33;56.57;;
58303;Laerm;44109;52.398;7.024;2023-02-23T01:57:39;45.24;30.10;56.64;;
58303;Laerm;44109;52.398;7.024;2023-02-23T02:00:10;45.60;30.17;56.83;;
58303;Laerm;44109;52.398;7.024;2023-02-23T02:02:40;45.65;30.02;56.67;;
58303;Laerm;44109;52.398;7.024;2023-02-23T02:05:08;45.91;30.27;56.76;;
58303;Laerm;44109;52.398;7.024;2023-02-23T02:07:45;45.64;30.27;56.86;;
58303;Laerm;44109;52.398;7.024;2023-02-23T02:10:16;45.88;30.38;56.95;;
58303;Laerm;44109;52.398;7.024;2023-02-23T02:13:01;45.43;30.02;56.95;;
58303;Laerm;44109;52.398;7.024;2023-02-23T02:15:36;45.89;30.11;57.24;;
58303;Laerm;44109;52.398;7.024;2023-02-23T02:18:16;45.57;30.26;56.88;;
58303;Laerm;44109;52.398;7.024;2023-02-23T02:21:22;45.20;30.38;56.79;;
58303;Laerm;44109;52.398;7.024;2023-02-23T02:24:38;44.57;30.10;56.64;;
58303;Laerm;44109;52.398;7.024;2023-02-23T02:34:18;44.41;30.15;56.87;;
58303;Laerm;44109;52.398;7.024;2023-02-23T02:37:36;44.64;30.16;56.89;;
58303;Laerm;44109;52.398;7.024;2023-02-23T02:40:16;44.97;30.03;56.63;;
58303;Laerm;44109;52.398;7.024;2023-02-23T02:43:08;45.22;30.29;56.95;;
58303;Laerm;44109;52.398;7.024;2023-02-23T02:45:49;45.36;30.20;56.90;;
58303;Laerm;44109;52.398;7.024;2023-02-23T02:48:28;45.59;30.19;56.86;;
58303;Laerm;44109;52.398;7.024;2023-02-23T02:51:10;45.45;29.93;56.82;;
58303;Laerm;44109;52.398;7.024;2023-02-23T02:53:55;45.77;30.03;56.83;;
58303;Laerm;44109;52.398;7.024;2023-02-23T02:56:26;45.81;29.98;56.59;;
58303;Laerm;44109;52.398;7.024;2023-02-23T02:58:55;46.06;29.98;56.51;;
58303;Laerm;44109;52.398;7.024;2023-02-23T03:01:22;46.06;30.18;56.45;;
58303;Laerm;44109;52.398;7.024;2023-02-23T03:04:22;45.21;30.26;56.85;;
58303;Laerm;44109;52.398;7.024;2023-02-23T03:07:17;45.32;30.31;56.93;;
58303;Laerm;44109;52.398;7.024;2023-02-23T03:10:14;46.43;30.27;56.84;;
58303;Laerm;44109;52.398;7.024;2023-02-23T03:13:17;44.81;30.12;56.76;;
58303;Laerm;44109;52.398;7.024;2023-02-23T03:16:21;44.75;30.28;56.69;;
58303;Laerm;44109;52.398;7.024;2023-02-23T03:19:16;44.84;30.10;56.88;;
58303;Laerm;44109;52.398;7.024;2023-02-23T03:22:13;45.04;30.45;56.88;;
58303;Laerm;44109;52.398;7.024;2023-02-23T03:25:09;44.98;30.15;56.93;;
58303;Laerm;44109;52.398;7.024;2023-02-23T03:28:07;44.77;29.92;56.77;;
58303;Laerm;44109;52.398;7.024;2023-02-23T03:31:06;45.01;30.23;57.01;;
58303;Laerm;44109;52.398;7.024;2023-02-23T03:34:02;44.95;30.21;56.78;;
58303;Laerm;44109;52.398;7.024;2023-02-23T03:37:02;44.78;30.17;56.29;;
58303;Laerm;44109;52.398;7.024;2023-02-23T03:40:01;44.85;30.20;56.89;;
58303;Laerm;44109;52.398;7.024;2023-02-23T03:42:52;44.77;30.16;56.84;;
58303;Laerm;44109;52.398;7.024;2023-02-23T03:45:42;44.91;30.19;56.92;;
58303;Laerm;44109;52.398;7.024;2023-02-23T03:48:32;44.87;30.21;57.08;;
58303;Laerm;44109;52.398;7.024;2023-02-23T03:51:23;44.81;30.04;56.68;;
58303;Laerm;44109;52.398;7.024;2023-02-23T03:54:14;44.89;30.20;56.64;;
58303;Laerm;44109;52.398;7.024;2023-02-23T03:57:07;44.81;30.25;56.93;;
58303;Laerm;44109;52.398;7.024;2023-02-23T04:00:00;44.96;30.29;57.01;;
58303;Laerm;44109;52.398;7.024;2023-02-23T04:02:51;46.01;30.19;56.97;;
58303;Laerm;44109;52.398;7.024;2023-02-23T04:05:40;44.97;30.27;56.96;;
58303;Laerm;44109;52.398;7.024;2023-02-23T04:08:34;44.87;30.08;56.75;;
58303;Laerm;44109;52.398;7.024;2023-02-23T04:11:27;45.63;29.88;56.91;;
58303;Laerm;44109;52.398;7.024;2023-02-23T04:14:19;45.20;30.41;57.21;;
58303;Laerm;44109;52.398;7.024;2023-02-23T04:16:51;46.17;30.60;56.87;;
58303;Laerm;44109;52.398;7.024;2023-02-23T04:19:18;46.03;31.51;57.05;;
58303;Laerm;44109;52.398;7.024;2023-02-23T04:21:46;45.83;30.43;56.68;;
58303;Laerm;44109;52.398;7.024;2023-02-23T04:24:13;45.76;30.33;56.95;;
58303;Laerm;44109;52.398;7.024;2023-02-23T04:26:41;45.91;30.35;56.60;;
58303;Laerm;44109;52.398;7.024;2023-02-23T04:29:10;45.90;30.01;56.96;;
58303;Laerm;44109;52.398;7.024;2023-02-23T04:31:38;45.90;30.34;56.65;;
58303;Laerm;44109;52.398;7.024;2023-02-23T04:34:08;45.93;30.86;57.05;;
58303;Laerm;44109;52.398;7.024;2023-02-23T04:36:36;46.04;30.41;56.87;;
58303;Laerm;44109;52.398;7.024;2023-02-23T04:39:03;46.06;30.35;56.91;;
58303;Laerm;44109;52.398;7.024;2023-02-23T04:41:31;46.01;30.21;56.71;;
58303;Laerm;44109;52.398;7.024;2023-02-23T04:43:58;46.11;30.52;56.80;;
58303;Laerm;44109;52.398;7.024;2023-02-23T04:46:26;46.08;30.47;56.82;;
58303;Laerm;44109;52.398;7.024;2023-02-23T04:48:54;45.84;30.04;56.85;;
58303;Laerm;44109;52.398;7.024;2023-02-23T04:51:23;46.01;30.19;57.09;;
58303;Laerm;44109;52.398;7.024;2023-02-23T04:53:55;45.50;30.44;56.72;;
58303;Laerm;44109;52.398;7.024;2023-02-23T04:56:23;45.83;30.39;56.99;;
58303;Laerm;44109;52.398;7.024;2023-02-23T04:58:51;47.02;31.87;60.25;;
58303;Laerm;44109;52.398;7.024;2023-02-23T05:01:19;46.20;30.35;56.93;;
58303;Laerm;44109;52.398;7.024;2023-02-23T05:03:47;45.89;30.45;56.93;;
58303;Laerm;44109;52.398;7.024;2023-02-23T05:06:16;45.88;30.78;56.88;;
58303;Laerm;44109;52.398;7.024;2023-02-23T05:08:45;45.83;30.28;58.61;;
58303;Laerm;44109;52.398;7.024;2023-02-23T05:11:13;45.75;31.07;57.02;;
58303;Laerm;44109;52.398;7.024;2023-02-23T05:13:41;45.72;30.92;56.90;;
58303;Laerm;44109;52.398;7.024;2023-02-23T05:16:09;45.99;32.78;57.04;;
58303;Laerm;44109;52.398;7.024;2023-02-23T05:18:36;45.82;30.84;56.93;;
58303;Laerm;44109;52.398;7.024;2023-02-23T05:21:06;45.79;31.60;56.93;;
58303;Laerm;44109;52.398;7.024;2023-02-23T05:23:36;45.89;31.43;56.97;;
58303;Laerm;44109;52.398;7.024;2023-02-23T05:26:09;46.20;31.70;56.74;;
58303;Laerm;44109;52.398;7.024;2023-02-23T05:28:39;46.48;30.94;61.13;;
58303;Laerm;44109;52.398;7.024;2023-02-23T05:31:08;45.94;30.80;56.95;;
58303;Laerm;44109;52.398;7.024;2023-02-23T05:33:37;45.99;31.67;57.18;;
58303;Laerm;44109;52.398;7.024;2023-02-23T05:36:09;46.11;31.75;57.18;;
58303;Laerm;44109;52.398;7.024;2023-02-23T05:38:38;46.47;33.17;56.49;;
58303;Laerm;44109;52.398;7.024;2023-02-23T05:41:11;46.37;32.07;57.03;;
58303;Laerm;44109;52.398;7.024;2023-02-23T05:43:39;46.61;31.31;58.74;;
58303;Laerm;44109;52.398;7.024;2023-02-23T05:46:07;46.39;31.56;57.23;;
58303;Laerm;44109;52.398;7.024;2023-02-23T05:48:35;46.79;33.76;57.05;;
58303;Laerm;44109;52.398;7.024;2023-02-23T05:51:05;47.08;32.44;59.07;;
58303;Laerm;44109;52.398;7.024;2023-02-23T05:53:34;48.03;32.84;62.74;;
58303;Laerm;44109;52.398;7.024;2023-02-23T05:56:03;50.52;32.26;72.84;;
58303;Laerm;44109;52.398;7.024;2023-02-23T05:58:32;54.87;33.03;74.92;;
58303;Laerm;44109;52.398;7.024;2023-02-23T06:01:00;50.21;34.45;67.57;;
58303;Laerm;44109;52.398;7.024;2023-02-23T06:03:28;49.09;34.73;64.17;;
58303;Laerm;44109;52.398;7.024;2023-02-23T06:05:57;48.54;34.81;63.37;;
58303;Laerm;44109;52.398;7.024;2023-02-23T06:08:25;48.44;36.04;60.99;;
58303;Laerm;44109;52.398;7.024;2023-02-23T06:10:53;48.36;35.48;62.35;;
58303;Laerm;44109;52.398;7.024;2023-02-23T06:13:20;49.04;34.53;65.48;;
58303;Laerm;44109;52.398;7.024;2023-02-23T06:15:49;47.28;33.57;66.69;;
58303;Laerm;44109;52.398;7.024;2023-02-23T06:18:17;46.81;34.41;56.96;;
58303;Laerm;44109;52.398;7.024;2023-02-23T06:20:46;47.38;33.01;58.76;;
58303;Laerm;44109;52.398;7.024;2023-02-23T06:23:14;50.38;35.71;66.75;;
58303;Laerm;44109;52.398;7.024;2023-02-23T06:25:42;47.45;34.68;60.21;;
58303;Laerm;44109;52.398;7.024;2023-02-23T06:28:10;48.62;32.25;66.86;;
58303;Laerm;44109;52.398;7.024;2023-02-23T06:30:38;46.93;33.38;57.98;;
58303;Laerm;44109;52.398;7.024;2023-02-23T06:33:08;48.16;34.69;61.24;;
58303;Laerm;44109;52.398;7.024;2023-02-23T06:35:35;47.81;33.68;62.50;;
58303;Laerm;44109;52.398;7.024;2023-02-23T06:38:03;47.40;33.77;60.31;;
58303;Laerm;44109;52.398;7.024;2023-02-23T06:40:32;57.24;33.56;73.84;;
58303;Laerm;44109;52.398;7.024;2023-02-23T06:42:59;50.41;36.41;74.73;;
58303;Laerm;44109;52.398;7.024;2023-02-23T06:45:28;50.00;35.85;75.87;;
58303;Laerm;44109;52.398;7.024;2023-02-23T06:47:57;47.71;35.06;58.16;;
58303;Laerm;44109;52.398;7.024;2023-02-23T06:50:27;49.14;36.22;61.71;;
58303;Laerm;44109;52.398;7.024;2023-02-23T06:52:54;52.52;34.84;74.51;;
58303;Laerm;44109;52.398;7.024;2023-02-23T06:55:23;48.72;33.78;65.38;;
58303;Laerm;44109;52.398;7.024;2023-02-23T06:57:51;49.38;34.01;69.83;;
58303;Laerm;44109;52.398;7.024;2023-02-23T07:00:21;47.80;34.10;70.67;;
58303;Laerm;44109;52.398;7.024;2023-02-23T07:02:48;51.71;34.06;75.42;;
58303;Laerm;44109;52.398;7.024;2023-02-23T07:05:16;50.83;34.07;75.43;;
58303;Laerm;44109;52.398;7.024;2023-02-23T07:07:45;50.84;33.34;72.40;;
58303;Laerm;44109;52.398;7.024;2023-02-23T07:10:13;49.61;35.43;70.56;;
58303;Laerm;44109;52.398;7.024;2023-02-23T07:12:41;47.42;33.26;65.14;;
58303;Laerm;44109;52.398;7.024;2023-02-23T07:15:09;47.94;34.32;62.12;;
58303;Laerm;44109;52.398;7.024;2023-02-23T07:17:37;47.54;33.72;59.04;;
58303;Laerm;44109;52.398;7.024;2023-02-23T07:20:06;47.85;35.63;59.58;;
58303;Laerm;44109;52.398;7.024;2023-02-23T07:22:34;47.29;34.64;58.16;;
58303;Laerm;44109;52.398;7.024;2023-02-23T07:25:04;48.85;34.13;63.21;;
58303;Laerm;44109;52.398;7.024;2023-02-23T07:27:32;49.14;36.03;67.31;;
58303;Laerm;44109;52.398;7.024;2023-02-23T07:30:01;48.51;35.03;69.22;;
58303;Laerm;44109;52.398;7.024;2023-02-23T07:32:29;48.73;34.91;75.73;;
58303;Laerm;44109;52.398;7.024;2023-02-23T07:34:56;51.25;34.27;84.66;;
58303;Laerm;44109;52.398;7.024;2023-02-23T07:37:24;48.23;35.06;70.60;;
58303;Laerm;44109;52.398;7.024;2023-02-23T07:39:52;49.72;35.99;74.90;;
58303;Laerm;44109;52.398;7.024;2023-02-23T07:42:20;54.27;34.61;75.13;;
58303;Laerm;44109;52.398;7.024;2023-02-23T07:44:48;50.24;34.78;73.40;;
58303;Laerm;44109;52.398;7.024;2023-02-23T07:47:16;48.61;34.79;75.42;;
58303;Laerm;44109;52.398;7.024;2023-02-23T07:49:43;51.08;34.79;77.57;;
58303;Laerm;44109;52.398;7.024;2023-02-23T07:52:11;51.12;41.38;74.64;;
58303;Laerm;44109;52.398;7.024;2023-02-23T07:54:39;52.90;41.17;74.36;;
58303;Laerm;44109;52.398;7.024;2023-02-23T07:57:06;50.13;36.87;68.85;;
58303;Laerm;44109;52.398;7.024;2023-02-23T07:59:35;48.38;33.41;73.07;;
58303;Laerm;44109;52.398;7.024;2023-02-23T08:02:04;48.09;34.72;68.25;;
58303;Laerm;44109;52.398;7.024;2023-02-23T08:04:32;50.73;33.49;81.60;;
58303;Laerm;44109;52.398;7.024;2023-02-23T08:07:00;49.08;34.85;69.08;;
58303;Laerm;44109;52.398;7.024;2023-02-23T08:09:27;50.39;34.79;69.15;;
58303;Laerm;44109;52.398;7.024;2023-02-23T08:11:57;50.12;34.35;66.84;;
58303;Laerm;44109;52.398;7.024;2023-02-23T08:14:25;52.85;34.59;77.84;;
58303;Laerm;44109;52.398;7.024;2023-02-23T08:16:54;49.06;35.09;63.86;;
58303;Laerm;44109;52.398;7.024;2023-02-23T08:19:22;48.65;34.25;72.37;;
58303;Laerm;44109;52.398;7.024;2023-02-23T08:21:50;47.49;35.62;63.46;;
58303;Laerm;44109;52.398;7.024;2023-02-23T08:24:18;49.19;35.09;62.27;;
58303;Laerm;44109;52.398;7.024;2023-02-23T08:26:45;50.03;34.60;75.69;;
58303;Laerm;44109;52.398;7.024;2023-02-23T08:29:15;49.12;34.10;74.07;;
58303;Laerm;44109;52.398;7.024;2023-02-23T08:31:43;50.04;34.73;72.08;;
58303;Laerm;44109;52.398;7.024;2023-02-23T08:34:13;51.76;35.26;64.02;;
58303;Laerm;44109;52.398;7.024;2023-02-23T08:36:40;47.61;34.07;69.65;;
58303;Laerm;44109;52.398;7.024;2023-02-23T08:39:11;49.13;33.83;74.30;;
58303;Laerm;44109;52.398;7.024;2023-02-23T08:41:39;56.61;34.46;74.02;;
58303;Laerm;44109;52.398;7.024;2023-02-23T08:44:07;50.26;34.59;73.76;;
58303;Laerm;44109;52.398;7.024;2023-02-23T08:46:35;48.68;35.09;71.90;;
58303;Laerm;44109;52.398;7.024;2023-02-23T08:49:02;51.37;40.76;67.03;;
58303;Laerm;44109;52.398;7.024;2023-02-23T08:51:33;47.94;34.41;61.03;;
58303;Laerm;44109;52.398;7.024;2023-02-23T08:54:01;47.86;34.45;68.40;;
58303;Laerm;44109;52.398;7.024;2023-02-23T08:56:28;49.23;35.09;74.61;;
58303;Laerm;44109;52.398;7.024;2023-02-23T08:58:57;51.18;34.89;71.72;;
58303;Laerm;44109;52.398;7.024;2023-02-23T09:01:24;48.38;34.42;76.75;;
58303;Laerm;44109;52.398;7.024;2023-02-23T09:03:52;48.08;34.05;61.34;;
58303;Laerm;44109;52.398;7.024;2023-02-23T09:06:23;47.08;33.50;56.83;;
58303;Laerm;44109;52.398;7.024;2023-02-23T09:08:54;47.29;34.70;60.67;;
58303;Laerm;44109;52.398;7.024;2023-02-23T09:11:23;47.18;35.04;60.54;;
58303;Laerm;44109;52.398;7.024;2023-02-23T09:13:51;47.86;33.70;63.35;;
58303;Laerm;44109;52.398;7.024;2023-02-23T09:16:18;48.12;33.86;63.48;;
58303;Laerm;44109;52.398;7.024;2023-02-23T09:18:46;48.08;35.75;64.61;;
58303;Laerm;44109;52.398;7.024;2023-02-23T09:21:17;49.35;36.36;71.59;;
58303;Laerm;44109;52.398;7.024;2023-02-23T09:23:47;49.55;36.19;69.52;;
58303;Laerm;44109;52.398;7.024;2023-02-23T09:26:18;50.62;34.32;69.94;;
58303;Laerm;44109;52.398;7.024;2023-02-23T09:28:46;49.91;36.76;69.56;;
58303;Laerm;44109;52.398;7.024;2023-02-23T09:31:18;53.80;35.78;72.20;;
58303;Laerm;44109;52.398;7.024;2023-02-23T09:33:46;50.29;36.86;67.12;;
58303;Laerm;44109;52.398;7.024;2023-02-23T09:36:16;50.12;36.86;68.48;;
58303;Laerm;44109;52.398;7.024;2023-02-23T09:38:46;50.72;37.01;77.24;;
58303;Laerm;44109;52.398;7.024;2023-02-23T09:41:47;49.74;35.03;68.70;;
58303;Laerm;44109;52.398;7.024;2023-02-23T09:44:36;50.53;35.52;69.47;;
58303;Laerm;44109;52.398;7.024;2023-02-23T09:47:23;50.00;36.07;72.27;;
58303;Laerm;44109;52.398;7.024;2023-02-23T09:49:56;49.78;37.36;70.01;;
58303;Laerm;44109;52.398;7.024;2023-02-23T09:52:35;50.87;37.89;75.05;;
58303;Laerm;44109;52.398;7.024;2023-02-23T09:55:08;51.18;38.18;78.57;;
58303;Laerm;44109;52.398;7.024;2023-02-23T09:57:42;50.87;37.97;73.45;;
58303;Laerm;44109;52.398;7.024;2023-02-23T10:00:17;50.79;37.08;77.29;;
58303;Laerm;44109;52.398;7.024;2023-02-23T10:03:07;49.69;35.94;71.53;;
58303;Laerm;44109;52.398;7.024;2023-02-23T10:05:42;49.65;36.59;76.13;;
58303;Laerm;44109;52.398;7.024;2023-02-23T10:08:24;50.37;36.45;71.22;;
58303;Laerm;44109;52.398;7.024;2023-02-23T10:11:09;49.59;36.31;72.92;;
58303;Laerm;44109;52.398;7.024;2023-02-23T10:16:48;51.77;38.25;81.42;;
58303;Laerm;44109;52.398;7.024;2023-02-23T10:19:29;51.09;41.26;70.08;;
58303;Laerm;44109;52.398;7.024;2023-02-23T10:22:02;52.41;37.85;77.63;;
58303;Laerm;44109;52.398;7.024;2023-02-23T10:24:36;49.72;36.83;70.45;;
58303;Laerm;44109;52.398;7.024;2023-02-23T10:27:11;51.02;36.53;79.77;;
58303;Laerm;44109;52.398;7.024;2023-02-23T10:29:48;52.36;37.29;79.92;;
58303;Laerm;44109;52.398;7.024;2023-02-23T10:32:25;50.73;36.54;74.37;;
58303;Laerm;44109;52.398;7.024;2023-02-23T10:34:55;51.70;38.29;69.52;;
58303;Laerm;44109;52.398;7.024;2023-02-23T10:37:24;52.18;36.69;77.79;;
58303;Laerm;44109;52.398;7.024;2023-02-23T10:39:52;50.69;36.42;75.00;;
58303;Laerm;44109;52.398;7.024;2023-02-23T10:42:25;50.59;36.40;74.92;;
58303;Laerm;44109;52.398;7.024;2023-02-23T10:44:56;50.35;36.59;72.83;;
58303;Laerm;44109;52.398;7.024;2023-02-23T10:47:28;49.72;34.48;69.16;;
58303;Laerm;44109;52.398;7.024;2023-02-23T10:49:58;48.04;35.27;64.79;;
58303;Laerm;44109;52.398;7.024;2023-02-23T10:52:32;47.78;34.59;63.63;;
58303;Laerm;44109;52.398;7.024;2023-02-23T10:55:05;48.02;35.60;69.18;;
58303;Laerm;44109;52.398;7.024;2023-02-23T10:57:38;52.33;35.83;72.95;;
58303;Laerm;44109;52.398;7.024;2023-02-23T11:00:25;48.39;36.91;66.46;;
58303;Laerm;44109;52.398;7.024;2023-02-23T11:03:00;48.22;36.55;59.56;;
58303;Laerm;44109;52.398;7.024;2023-02-23T11:05:44;48.25;36.94;63.15;;
58303;Laerm;44109;52.398;7.024;2023-02-23T11:08:23;48.28;36.25;64.88;;
58303;Laerm;44109;52.398;7.024;2023-02-23T11:11:05;49.45;36.29;66.57;;
58303;Laerm;44109;52.398;7.024;2023-02-23T11:13:40;47.75;36.83;57.78;;
58303;Laerm;44109;52.398;7.024;2023-02-23T11:16:12;48.75;36.64;70.24;;
58303;Laerm;44109;52.398;7.024;2023-02-23T11:18:49;48.83;36.45;64.25;;
58303;Laerm;44109;52.398;7.024;2023-02-23T11:21:26;50.10;36.17;65.10;;
58303;Laerm;44109;52.398;7.024;2023-02-23T11:23:58;49.93;37.16;61.90;;
58303;Laerm;44109;52.398;7.024;2023-02-23T11:26:35;48.05;36.29;64.00;;
58303;Laerm;44109;52.398;7.024;2023-02-23T11:29:15;47.06;34.63;61.14;;
58303;Laerm;44109;52.398;7.024;2023-02-23T11:31:51;46.78;35.29;58.04;;
58303;Laerm;44109;52.398;7.024;2023-02-23T11:34:29;47.09;34.56;59.70;;
58303;Laerm;44109;52.398;7.024;2023-02-23T11:37:01;46.42;34.54;57.09;;
58303;Laerm;44109;52.398;7.024;2023-02-23T11:39:30;47.06;34.98;57.38;;
58303;Laerm;44109;52.398;7.024;2023-02-23T11:42:16;46.91;33.94;66.37;;
58303;Laerm;44109;52.398;7.024;2023-02-23T11:44:50;47.12;34.08;60.82;;
58303;Laerm;44109;52.398;7.024;2023-02-23T11:47:22;47.39;33.89;62.03;;
58303;Laerm;44109;52.398;7.024;2023-02-23T11:49:53;47.51;34.30;59.24;;
58303;Laerm;44109;52.398;7.024;2023-02-23T11:52:23;48.83;33.73;71.48;;
58303;Laerm;44109;52.398;7.024;2023-02-23T11:54:57;46.82;34.02;56.93;;
58303;Laerm;44109;52.398;7.024;2023-02-23T11:57:30;46.83;33.85;64.91;;
58303;Laerm;44109;52.398;7.024;2023-02-23T12:00:09;47.42;33.88;70.30;;
58303;Laerm;44109;52.398;7.024;2023-02-23T12:02:48;47.97;34.00;67.48;;
58303;Laerm;44109;52.398;7.024;2023-02-23T12:05:23;48.42;36.37;66.14;;
58303;Laerm;44109;52.398;7.024;2023-02-23T12:08:01;49.31;35.33;59.63;;
58303;Laerm;44109;52.398;7.024;2023-02-23T12:10:37;49.45;35.14;75.77;;
58303;Laerm;44109;52.398;7.024;2023-02-23T12:13:24;46.60;34.16;61.78;;
58303;Laerm;44109;52.398;7.024;2023-02-23T12:16:00;47.40;35.77;59.36;;
58303;Laerm;44109;52.398;7.024;2023-02-23T12:18:45;49.30;35.68;60.50;;
58303;Laerm;44109;52.398;7.024;2023-02-23T12:21:27;49.26;34.81;71.17;;
58303;Laerm;44109;52.398;7.024;2023-02-23T12:24:14;47.93;36.74;60.97;;
58303;Laerm;44109;52.398;7.024;2023-02-23T12:26:48;47.65;35.78;61.51;;
58303;Laerm;44109;52.398;7.024;2023-02-23T12:29:26;47.20;34.99;58.19;;
58303;Laerm;44109;52.398;7.024;2023-02-23T12:32:01;52.00;35.87;84.31;;
58303;Laerm;44109;52.398;7.024;2023-02-23T12:34:45;47.70;35.41;60.51;;
58303;Laerm;44109;52.398;7.024;2023-02-23T12:37:29;47.80;34.35;62.88;;
58303;Laerm;44109;52.398;7.024;2023-02-23T12:40:13;48.21;35.44;67.05;;
58303;Laerm;44109;52.398;7.024;2023-02-23T12:42:53;47.70;36.62;62.94;;
58303;Laerm;44109;52.398;7.024;2023-02-23T12:45:31;48.73;37.29;60.49;;
58303;Laerm;44109;52.398;7.024;2023-02-23T12:48:14;48.06;37.27;66.85;;
58303;Laerm;44109;52.398;7.024;2023-02-23T12:50:51;48.58;36.31;64.77;;
58303;Laerm;44109;52.398;7.024;2023-02-23T12:53:25;48.60;36.48;64.97;;
58303;Laerm;44109;52.398;7.024;2023-02-23T12:56:15;48.44;36.18;62.94;;
58303;Laerm;44109;52.398;7.024;2023-02-23T12:58:57;50.87;37.49;65.59;;
58303;Laerm;44109;52.398;7.024;2023-02-23T13:01:30;49.28;37.14;62.14;;
58303;Laerm;44109;52.398;7.024;2023-02-23T13:04:17;47.12;36.22;57.16;;
58303;Laerm;44109;52.398;7.024;2023-02-23T13:07:03;47.80;36.62;57.06;;
58303;Laerm;44109;52.398;7.024;2023-02-23T13:09:44;48.76;35.78;65.25;;
58303;Laerm;44109;52.398;7.024;2023-02-23T13:12:33;50.23;36.03;69.90;;
58303;Laerm;44109;52.398;7.024;2023-02-23T13:15:19;47.00;35.37;57.47;;
58303;Laerm;44109;52.398;7.024;2023-02-23T13:17:58;48.09;34.99;66.11;;
58303;Laerm;44109;52.398;7.024;2023-02-23T13:20:34;49.80;36.41;65.32;;
58303;Laerm;44109;52.398;7.024;2023-02-23T13:23:24;46.66;36.08;57.55;;
58303;Laerm;44109;52.398;7.024;2023-02-23T13:26:03;47.08;35.43;57.08;;
58303;Laerm;44109;52.398;7.024;2023-02-23T13:28:49;46.59;35.42;58.11;;
58303;Laerm;44109;52.398;7.024;2023-02-23T13:31:25;50.15;35.28;70.53;;
58303;Laerm;44109;52.398;7.024;2023-02-23T13:33:57;49.34;37.55;70.58;;
58303;Laerm;44109;52.398;7.024;2023-02-23T13:36:28;49.86;36.13;69.35;;
58303;Laerm;44109;52.398;7.024;2023-02-23T13:39:39;50.81;33.94;71.62;;
58303;Laerm;44109;52.398;7.024;2023-02-23T13:42:37;46.27;35.83;58.26;;
58303;Laerm;44109;52.398;7.024;2023-02-23T13:45:52;45.85;33.37;57.06;;
58303;Laerm;44109;52.398;7.024;2023-02-23T13:48:33;46.54;34.35;65.81;;
58303;Laerm;44109;52.398;7.024;2023-02-23T13:51:18;47.99;34.08;71.32;;
58303;Laerm;44109;52.398;7.024;2023-02-23T13:54:00;46.89;34.85;60.86;;
58303;Laerm;44109;52.398;7.024;2023-02-23T13:56:40;50.69;35.52;64.11;;
58303;Laerm;44109;52.398;7.024;2023-02-23T13:59:16;50.18;35.09;62.54;;
58303;Laerm;44109;52.398;7.024;2023-02-23T14:01:48;50.52;36.88;62.75;;
58303;Laerm;44109;52.398;7.024;2023-02-23T14:04:21;48.44;35.94;65.69;;
58303;Laerm;44109;52.398;7.024;2023-02-23T14:06:54;51.82;35.49;64.50;;
58303;Laerm;44109;52.398;7.024;2023-02-23T14:09:29;49.39;35.55;60.83;;
58303;Laerm;44109;52.398;7.024;2023-02-23T14:12:15;46.54;35.61;59.36;;
58303;Laerm;44109;52.398;7.024;2023-02-23T14:14:46;46.92;35.22;57.14;;
58303;Laerm;44109;52.398;7.024;2023-02-23T14:17:39;47.75;35.72;60.94;;
58303;Laerm;44109;52.398;7.024;2023-02-23T14:23:26;48.93;34.78;65.45;;
58303;Laerm;44109;52.398;7.024;2023-02-23T14:26:12;47.18;35.15;57.60;;
58303;Laerm;44109;52.398;7.024;2023-02-23T14:28:46;47.18;33.68;57.64;;
58303;Laerm;44109;52.398;7.024;2023-02-23T14:31:21;46.86;33.35;57.00;;
58303;Laerm;44109;52.398;7.024;2023-02-23T14:34:05;46.74;34.58;57.12;;
58303;Laerm;44109;52.398;7.024;2023-02-23T14:36:37;48.06;34.83;58.69;;
58303;Laerm;44109;52.398;7.024;2023-02-23T14:39:17;47.66;34.25;63.48;;
58303;Laerm;44109;52.398;7.024;2023-02-23T14:41:50;47.17;34.90;62.35;;
58303;Laerm;44109;52.398;7.024;2023-02-23T14:44:25;48.39;34.07;60.90;;